Terminal Aerodrome Forecast
Issued by NWS

Home | Current Version | Previous Version | Text Only | Print | Product List | Glossary On
Versions: 1 2 3 4 5 6 7 8 9 10 11 12 13 14 15 16 17
000
FTAK31 PAJN 301100
TAFASI
TAF
PASI 301128Z 3012/0112 14005KT P6SM -SHRA BKN035 OVC060
      TEMPO 3012/3013 5SM -SHRA BR BKN008 OVC025
     FM301400 17009KT P6SM -SHRA BKN035 OVC050
     FM302000 22013KT 6SM -SHRA BKN030 OVC060
     FM010200 25010KT P6SM VCSH BKN050 OVC070
     FM010700 VRB05KT P6SM SCT050 SCT090=

USA.gov is the U.S. government's official web portal to all federal, state and local government web resources and services.